WZZ10GC LHBP-EKCH
Flight info
| Callsign | WZZ10GC |
|---|---|
| Flight time | N/A |
| Altitude | 30000 |
| Route | LITKU2B LITKU Y301 KALIF DCT BILNA DCT REGLI L617 ADVAB L619 DENKO L996 ROE M743 TIDVU TIDVU3C |
| Aircraft | A321/M-SDE3FGHIRWY/LB1 |
Departure
| Time | 2026-05-04 17:47 |
|---|---|
| Airport | Budapest Liszt Ferenc International Airport (LHBP) |
Arrival
| Time | N/A |
|---|---|
| Airport | Copenhagen Kastrup Airport (EKCH) |
| Time | Latitude | Longitude | Altitude | Speed | Heading |
|---|---|---|---|---|---|
| 2026-05-04 17:07 | 47.43422 | 19.26116 | 479 ft | 0 kts | 126° |
| 2026-05-04 17:35 | 47.43435 | 19.26092 | 479 ft | 4 kts | 131° |
| 2026-05-04 17:35 | 47.43454 | 19.26024 | 480 ft | 4 kts | 64° |
| 2026-05-04 17:35 | 47.43447 | 19.26010 | 480 ft | 0 kts | 42° |
| 2026-05-04 17:40 | 47.43450 | 19.26014 | 485 ft | 3 kts | 42° |
| 2026-05-04 17:40 | 47.43492 | 19.26072 | 480 ft | 10 kts | 43° |
| 2026-05-04 17:41 | 47.43544 | 19.26141 | 483 ft | 10 kts | 43° |
| 2026-05-04 17:41 | 47.43600 | 19.26216 | 481 ft | 11 kts | 40° |
| 2026-05-04 17:41 | 47.43656 | 19.26292 | 477 ft | 11 kts | 42° |
| 2026-05-04 17:41 | 47.43714 | 19.26369 | 482 ft | 11 kts | 43° |
| 2026-05-04 17:42 | 47.43782 | 19.26409 | 483 ft | 11 kts | 341° |
| 2026-05-04 17:42 | 47.43837 | 19.26335 | 483 ft | 11 kts | 312° |
| 2026-05-04 17:42 | 47.43887 | 19.26255 | 482 ft | 10 kts | 312° |
| 2026-05-04 17:42 | 47.43938 | 19.26213 | 487 ft | 7 kts | 356° |
| 2026-05-04 17:43 | 47.43978 | 19.26241 | 485 ft | 5 kts | 37° |
| 2026-05-04 17:43 | 47.44000 | 19.26270 | 488 ft | 0 kts | 41° |
| 2026-05-04 17:45 | 47.44001 | 19.26271 | 487 ft | 1 kts | 41° |
| 2026-05-04 17:45 | 47.44032 | 19.26316 | 493 ft | 9 kts | 52° |
| 2026-05-04 17:45 | 47.44060 | 19.26403 | 489 ft | 11 kts | 70° |
| 2026-05-04 17:46 | 47.44057 | 19.26520 | 489 ft | 13 kts | 110° |
| 2026-05-04 17:46 | 47.43998 | 19.26635 | 484 ft | 17 kts | 133° |
| 2026-05-04 17:46 | 47.43765 | 19.27011 | 486 ft | 84 kts | 132° |
| 2026-05-04 17:46 | 47.43231 | 19.27875 | 488 ft | 142 kts | 133° |
| 2026-05-04 17:47 | 47.42743 | 19.28664 | 499 ft | 171 kts | 134° |
| 2026-05-04 17:47 | 47.41989 | 19.30041 | 1027 ft | 173 kts | 124° |
| 2026-05-04 17:47 | 47.41357 | 19.31574 | 1612 ft | 175 kts | 123° |
| 2026-05-04 17:47 | 47.40553 | 19.33679 | 2313 ft | 185 kts | 122° |
| 2026-05-04 17:48 | 47.40126 | 19.34846 | 2436 ft | 197 kts | 121° |
| 2026-05-04 17:48 | 47.39449 | 19.36731 | 2622 ft | 219 kts | 121° |
| 2026-05-04 17:48 | 47.38682 | 19.38814 | 2924 ft | 238 kts | 119° |
| 2026-05-04 17:48 | 47.38302 | 19.41300 | 3258 ft | 265 kts | 86° |
| 2026-05-04 17:49 | 47.39005 | 19.43860 | 3860 ft | 276 kts | 53° |
| 2026-05-04 17:49 | 47.40375 | 19.45875 | 4570 ft | 282 kts | 40° |
| 2026-05-04 17:49 | 47.41940 | 19.47656 | 5282 ft | 285 kts | 38° |
| 2026-05-04 17:49 | 47.43517 | 19.49443 | 6053 ft | 286 kts | 39° |
| 2026-05-04 17:50 | 47.45058 | 19.51318 | 6794 ft | 288 kts | 38° |
| 2026-05-04 17:50 | 47.46811 | 19.52728 | 7437 ft | 291 kts | 15° |
| 2026-05-04 17:50 | 47.48820 | 19.53121 | 8089 ft | 293 kts | 2° |
| 2026-05-04 17:50 | 47.50833 | 19.53296 | 8763 ft | 295 kts | 2° |
| 2026-05-04 17:51 | 47.52898 | 19.53468 | 9452 ft | 299 kts | 2° |
| 2026-05-04 17:51 | 47.54983 | 19.53642 | 10124 ft | 302 kts | 2° |
| 2026-05-04 17:51 | 47.57146 | 19.53828 | 10335 ft | 322 kts | 2° |
| 2026-05-04 17:51 | 47.59461 | 19.54029 | 10463 ft | 344 kts | 2° |
| 2026-05-04 17:52 | 47.61915 | 19.54248 | 10686 ft | 360 kts | 3° |
| 2026-05-04 17:52 | 47.64439 | 19.54479 | 11213 ft | 365 kts | 2° |
| 2026-05-04 17:52 | 47.66987 | 19.54713 | 11818 ft | 368 kts | 2° |
| 2026-05-04 17:52 | 47.69557 | 19.54951 | 12440 ft | 371 kts | 2° |
| 2026-05-04 17:53 | 47.72147 | 19.55188 | 13069 ft | 374 kts | 2° |
| 2026-05-04 17:53 | 47.74757 | 19.55423 | 13712 ft | 377 kts | 2° |
| 2026-05-04 17:53 | 47.77379 | 19.55659 | 14296 ft | 379 kts | 2° |
| 2026-05-04 17:53 | 47.80021 | 19.55899 | 14855 ft | 382 kts | 2° |
| 2026-05-04 17:54 | 47.82681 | 19.56144 | 15442 ft | 384 kts | 2° |
| 2026-05-04 17:54 | 47.85353 | 19.56388 | 16026 ft | 386 kts | 2° |
| 2026-05-04 17:54 | 47.88045 | 19.56632 | 16605 ft | 389 kts | 2° |
| 2026-05-04 17:54 | 47.90760 | 19.56878 | 17185 ft | 391 kts | 2° |
| 2026-05-04 17:55 | 47.93487 | 19.57128 | 17787 ft | 393 kts | 2° |
| 2026-05-04 17:55 | 47.96221 | 19.57380 | 18363 ft | 395 kts | 2° |
| 2026-05-04 17:55 | 47.98976 | 19.57634 | 18861 ft | 397 kts | 2° |
| 2026-05-04 17:55 | 48.01744 | 19.57887 | 19363 ft | 400 kts | 2° |
| 2026-05-04 17:56 | 48.04493 | 19.58138 | 19856 ft | 402 kts | 2° |
| 2026-05-04 17:56 | 48.07300 | 19.58395 | 20366 ft | 404 kts | 2° |
| 2026-05-04 17:56 | 48.10116 | 19.58653 | 20852 ft | 407 kts | 2° |
| 2026-05-04 17:56 | 48.12959 | 19.58916 | 21319 ft | 409 kts | 2° |